createdAt,value
2019-04-05T00:01:49.470Z,59.76
2019-04-05T00:04:20.853Z,59.94
2019-04-05T00:06:52.222Z,60.03
2019-04-05T00:09:23.523Z,60.02
2019-04-05T00:11:54.993Z,60.33
2019-04-05T00:14:26.251Z,60.00
2019-04-05T00:16:57.536Z,59.95
2019-04-05T00:19:29.986Z,59.96
2019-04-05T00:22:01.289Z,59.94
2019-04-05T00:24:32.752Z,59.96
2019-04-05T00:27:04.094Z,59.86
2019-04-05T00:29:35.362Z,60.06
2019-04-05T00:32:06.782Z,60.29
2019-04-05T00:34:38.027Z,59.94
2019-04-05T00:37:09.515Z,59.91
2019-04-05T00:39:40.756Z,59.91
2019-04-05T00:42:12.109Z,60.48
2019-04-05T00:44:43.388Z,59.96
2019-04-05T00:47:14.831Z,60.11
2019-04-05T00:49:47.185Z,60.36
2019-04-05T00:52:18.517Z,60.46
2019-04-05T00:54:49.783Z,60.47
2019-04-05T00:57:21.100Z,60.38
2019-04-05T00:59:52.382Z,60.09
2019-04-05T01:02:23.669Z,60.11
2019-04-05T01:04:54.954Z,60.51
2019-04-05T01:07:26.192Z,60.46
2019-04-05T01:09:57.541Z,60.42
2019-04-05T01:12:28.834Z,60.45
2019-04-05T01:15:00.112Z,60.38
2019-04-05T01:17:31.467Z,60.59
2019-04-05T01:20:04.773Z,60.94
2019-04-05T01:22:36.033Z,60.48
2019-04-05T01:25:07.315Z,60.37
2019-04-05T01:27:40.738Z,60.44
2019-04-05T01:30:13.716Z,60.32
2019-04-05T01:32:44.966Z,60.29
2019-04-05T01:35:16.313Z,60.25
2019-04-05T01:37:47.767Z,60.38
2019-04-05T01:40:19.187Z,60.25
2019-04-05T01:42:50.631Z,60.45
2019-04-05T01:45:21.965Z,60.17
2019-04-05T01:47:53.302Z,60.14
2019-04-05T01:50:24.542Z,60.23
2019-04-05T01:52:55.879Z,60.11
2019-04-05T01:55:27.103Z,60.26
2019-04-05T01:57:58.425Z,60.28
2019-04-05T02:00:29.864Z,60.18
2019-04-05T02:03:01.023Z,60.20
2019-04-05T02:05:33.497Z,60.18
2019-04-05T02:08:04.898Z,60.21
2019-04-05T02:10:36.478Z,60.29
2019-04-05T02:13:07.659Z,60.35
2019-04-05T02:15:39.362Z,60.25
2019-04-05T02:18:10.639Z,60.33
2019-04-05T02:20:41.905Z,60.29
2019-04-05T02:23:13.422Z,60.41
2019-04-05T02:25:44.708Z,60.31
2019-04-05T02:28:15.974Z,60.38
2019-04-05T02:30:47.190Z,60.60
2019-04-05T02:33:18.415Z,60.52
2019-04-05T02:35:49.735Z,60.46
2019-04-05T02:38:20.983Z,60.42
2019-04-05T02:40:53.153Z,60.44
2019-04-05T02:43:25.782Z,60.38
2019-04-05T02:45:57.217Z,60.32
2019-04-05T02:48:29.911Z,60.26
2019-04-05T02:51:02.581Z,60.37
2019-04-05T02:53:35.369Z,60.43
2019-04-05T02:56:07.820Z,60.35
2019-04-05T02:58:39.738Z,60.38
2019-04-05T03:01:10.963Z,60.53
2019-04-05T03:03:42.332Z,60.41
2019-04-05T03:06:13.572Z,60.43
2019-04-05T03:08:45.008Z,60.39
2019-04-05T03:11:17.682Z,60.48
2019-04-05T03:13:51.719Z,60.35
2019-04-05T03:16:40.158Z,60.40
2019-04-05T03:19:14.724Z,60.65
2019-04-05T03:21:51.058Z,60.39
2019-04-05T03:24:26.056Z,60.40
2019-04-05T03:27:02.584Z,60.48
2019-04-05T03:29:33.713Z,60.44
2019-04-05T03:32:05.032Z,60.41
2019-04-05T03:34:37.357Z,60.41
2019-04-05T03:37:09.012Z,60.43
2019-04-05T03:39:40.192Z,60.27
2019-04-05T03:42:11.824Z,60.57
2019-04-05T03:44:43.369Z,60.53
2019-04-05T03:47:17.069Z,60.41
2019-04-05T03:49:48.578Z,60.54
2019-04-05T03:52:19.805Z,60.58
2019-04-05T03:54:51.151Z,60.61
2019-04-05T03:57:22.534Z,60.64
2019-04-05T03:59:53.891Z,60.64
2019-04-05T04:02:25.121Z,60.69
2019-04-05T04:04:56.267Z,60.73
2019-04-05T04:07:27.600Z,60.81
2019-04-05T04:09:58.859Z,60.61
2019-04-05T04:12:30.103Z,60.68
2019-04-05T04:15:13.898Z,60.69
2019-04-05T04:17:46.120Z,60.64
2019-04-05T04:20:34.080Z,60.58
2019-04-05T04:23:06.273Z,60.67
2019-04-05T04:25:38.090Z,60.71
2019-04-05T04:28:11.052Z,60.55
2019-04-05T04:30:42.399Z,60.52
2019-04-05T04:33:14.359Z,60.56
2019-04-05T04:35:45.929Z,60.63
2019-04-05T04:38:17.670Z,60.57
2019-04-05T04:40:49.057Z,60.58
2019-04-05T04:43:20.410Z,60.71
2019-04-05T04:45:51.800Z,60.75
2019-04-05T04:48:23.001Z,60.72
2019-04-05T04:50:54.337Z,60.78
2019-04-05T04:53:26.047Z,60.69
2019-04-05T04:55:57.717Z,60.71
2019-04-05T04:58:28.872Z,60.69
2019-04-05T05:01:00.091Z,60.76
2019-04-05T05:03:31.294Z,60.80
2019-04-05T05:06:02.582Z,60.81
2019-04-05T05:08:34.036Z,60.76
2019-04-05T05:11:14.563Z,60.84
2019-04-05T05:13:38.418Z,60.94
2019-04-05T05:16:09.746Z,60.79
2019-04-05T05:18:41.062Z,60.75
2019-04-05T05:21:12.303Z,60.82
2019-04-05T05:23:43.745Z,60.73
2019-04-05T05:26:15.283Z,60.67
2019-04-05T05:28:46.463Z,60.75
2019-04-05T05:31:17.678Z,60.76
2019-04-05T05:33:49.044Z,60.76
2019-04-05T05:36:20.515Z,60.66
2019-04-05T05:38:52.052Z,60.58
2019-04-05T05:41:23.263Z,60.54
2019-04-05T05:43:54.450Z,60.52
2019-04-05T05:46:25.678Z,60.48
2019-04-05T05:48:56.984Z,60.50
2019-04-05T05:51:28.280Z,60.35
2019-04-05T05:53:59.501Z,60.40
2019-04-05T05:56:30.740Z,60.50
2019-04-05T05:59:01.915Z,60.60
2019-04-05T06:01:34.327Z,60.67
2019-04-05T06:04:05.525Z,60.75
2019-04-05T06:06:36.824Z,60.93
2019-04-05T06:09:08.948Z,60.65
2019-04-05T06:11:40.139Z,60.67
2019-04-05T06:14:11.468Z,60.79
2019-04-05T06:16:46.636Z,60.86
2019-04-05T06:19:15.706Z,60.74
2019-04-05T06:21:46.887Z,60.78
2019-04-05T06:24:18.110Z,60.79
2019-04-05T06:26:49.518Z,60.76
2019-04-05T06:29:20.732Z,60.77
2019-04-05T06:31:51.989Z,60.92
2019-04-05T06:34:23.134Z,60.86
2019-04-05T06:36:54.571Z,60.83
2019-04-05T06:39:25.901Z,60.78
2019-04-05T06:41:57.612Z,60.83
2019-04-05T06:44:28.828Z,60.67
2019-04-05T06:47:00.385Z,60.63
2019-04-05T06:49:32.481Z,60.66
2019-04-05T06:52:03.798Z,60.71
2019-04-05T06:54:35.986Z,60.66
2019-04-05T06:57:07.123Z,60.57
2019-04-05T06:59:38.412Z,60.65
2019-04-05T07:02:09.619Z,60.58
2019-04-05T07:04:40.829Z,60.71
2019-04-05T07:07:12.062Z,60.63
2019-04-05T07:09:43.359Z,60.80
2019-04-05T07:12:14.585Z,60.68
2019-04-05T07:14:47.252Z,60.66
2019-04-05T07:17:18.398Z,60.58
2019-04-05T07:19:49.569Z,60.65
2019-04-05T07:22:34.184Z,60.73
2019-04-05T07:24:53.780Z,60.74
2019-04-05T07:27:24.897Z,60.79
2019-04-05T07:29:56.154Z,60.68
2019-04-05T07:32:27.392Z,60.62
2019-04-05T07:34:58.593Z,60.59
2019-04-05T07:37:29.740Z,60.58
2019-04-05T07:40:00.982Z,60.55
2019-04-05T07:42:32.288Z,60.57
2019-04-05T07:45:03.690Z,60.53
2019-04-05T07:47:36.002Z,60.57
2019-04-05T07:50:07.820Z,60.56
2019-04-05T07:52:39.033Z,60.59
2019-04-05T07:55:10.333Z,60.58
2019-04-05T07:57:41.535Z,60.57
2019-04-05T08:00:36.814Z,60.56
2019-04-05T08:03:08.162Z,60.49
2019-04-05T08:05:39.639Z,60.47
2019-04-05T08:08:13.733Z,60.39
2019-04-05T08:10:46.690Z,60.43
2019-04-05T08:13:18.207Z,60.45
2019-04-05T08:15:49.614Z,60.48
2019-04-05T08:18:20.801Z,60.48
2019-04-05T08:20:51.996Z,60.46
2019-04-05T08:23:23.306Z,60.53
2019-04-05T08:25:54.471Z,60.48
2019-04-05T08:28:25.656Z,60.44
2019-04-05T08:30:56.893Z,60.57
2019-04-05T08:33:28.063Z,60.50
2019-04-05T08:35:59.216Z,60.46
2019-04-05T08:38:30.364Z,60.48
2019-04-05T08:41:01.572Z,60.49
2019-04-05T08:43:32.724Z,60.50
2019-04-05T08:46:04.007Z,60.45
2019-04-05T08:48:35.212Z,60.38
2019-04-05T08:51:06.376Z,60.27
2019-04-05T08:53:37.582Z,60.25
2019-04-05T08:56:08.859Z,60.20
2019-04-05T08:58:40.111Z,60.18
2019-04-05T09:01:11.288Z,60.11
2019-04-05T09:03:42.451Z,60.00
2019-04-05T09:06:13.616Z,59.99
2019-04-05T09:08:44.793Z,59.94
2019-04-05T09:11:15.972Z,59.84
2019-04-05T09:13:47.172Z,59.73
2019-04-05T09:16:18.356Z,59.69
2019-04-05T09:18:49.744Z,59.74
2019-04-05T09:21:21.271Z,59.74
2019-04-05T09:23:52.507Z,59.72
2019-04-05T09:26:23.717Z,59.71
2019-04-05T09:28:54.948Z,59.71
2019-04-05T09:31:26.130Z,59.69
2019-04-05T09:33:57.394Z,59.67
2019-04-05T09:36:28.585Z,59.63
2019-04-05T09:38:59.844Z,59.60
2019-04-05T09:41:31.238Z,59.57
2019-04-05T09:44:02.449Z,59.54
2019-04-05T09:46:45.980Z,59.46
2019-04-05T09:49:06.502Z,59.43
2019-04-05T09:51:37.825Z,59.32
2019-04-05T09:54:08.963Z,59.33
2019-04-05T09:56:40.172Z,59.31
2019-04-05T09:59:11.546Z,59.25
2019-04-05T10:01:42.746Z,59.21
2019-04-05T10:04:13.996Z,59.19
2019-04-05T10:06:45.212Z,59.14
2019-04-05T10:09:16.375Z,59.09
2019-04-05T10:11:47.560Z,58.99
2019-04-05T10:14:18.854Z,59.00
2019-04-05T10:16:50.053Z,59.03
2019-04-05T10:19:21.324Z,59.03
2019-04-05T10:21:52.560Z,58.99
2019-04-05T10:24:23.776Z,58.90
2019-04-05T10:26:54.997Z,58.86
2019-04-05T10:29:26.193Z,58.80
2019-04-05T10:31:57.518Z,58.70
2019-04-05T10:34:28.680Z,58.63
2019-04-05T10:36:59.932Z,58.55
2019-04-05T10:39:31.280Z,58.47
2019-04-05T10:42:04.016Z,58.38
2019-04-05T10:44:35.456Z,58.31
2019-04-05T10:47:07.071Z,58.30
2019-04-05T10:49:38.374Z,58.26
2019-04-05T10:52:09.658Z,58.17
2019-04-05T10:54:40.942Z,58.08
2019-04-05T10:57:12.171Z,58.00
2019-04-05T10:59:43.591Z,57.86
2019-04-05T11:02:14.777Z,57.79
2019-04-05T11:04:45.960Z,57.85
2019-04-05T11:07:17.147Z,57.79
2019-04-05T11:09:48.305Z,57.67
2019-04-05T11:12:19.574Z,57.48
2019-04-05T11:14:50.788Z,57.28
2019-04-05T11:17:21.976Z,57.10
2019-04-05T11:19:53.174Z,57.05
2019-04-05T11:22:24.387Z,57.05
2019-04-05T11:24:56.805Z,57.04
2019-04-05T11:27:27.926Z,57.08
2019-04-05T11:29:59.126Z,57.07
2019-04-05T11:32:30.414Z,57.10
2019-04-05T11:35:01.679Z,57.11
2019-04-05T11:37:32.898Z,57.10
2019-04-05T11:40:04.976Z,57.15
2019-04-05T11:42:38.588Z,57.20
2019-04-05T11:45:10.028Z,57.22
2019-04-05T11:47:42.020Z,57.20
2019-04-05T11:50:13.685Z,57.24
2019-04-05T11:52:44.928Z,57.33
2019-04-05T11:55:18.535Z,57.27
2019-04-05T11:57:49.836Z,57.25
2019-04-05T12:00:25.956Z,57.23
2019-04-05T12:03:00.351Z,57.20
2019-04-05T12:05:31.631Z,57.13
2019-04-05T12:08:02.807Z,57.06
2019-04-05T12:10:34.099Z,57.01
2019-04-05T12:13:05.649Z,56.96
2019-04-05T12:15:36.932Z,56.87
2019-04-05T12:18:08.131Z,56.79
2019-04-05T12:20:49.107Z,56.75
2019-04-05T12:23:13.089Z,56.73
2019-04-05T12:25:44.596Z,56.70
2019-04-05T12:28:17.231Z,56.64
2019-04-05T12:30:49.214Z,56.58
2019-04-05T12:33:21.479Z,56.55
2019-04-05T12:35:56.304Z,56.53
2019-04-05T12:38:33.140Z,56.51
2019-04-05T12:41:05.196Z,56.46
2019-04-05T12:43:36.387Z,56.41
2019-04-05T12:46:07.759Z,56.36
2019-04-05T12:48:38.934Z,56.32
2019-04-05T12:51:10.173Z,56.29
2019-04-05T12:53:41.349Z,56.23
2019-04-05T12:56:12.515Z,56.20
2019-04-05T12:58:43.848Z,56.12
2019-04-05T13:01:15.049Z,56.10
2019-04-05T13:03:51.112Z,56.09
2019-04-05T13:06:21.781Z,56.05
2019-04-05T13:08:54.483Z,56.11
2019-04-05T13:11:26.625Z,56.17
2019-04-05T13:13:58.231Z,56.26
2019-04-05T13:16:29.417Z,56.24
2019-04-05T13:19:01.708Z,56.23
2019-04-05T13:21:33.231Z,56.18
2019-04-05T13:24:09.088Z,56.19
2019-04-05T13:26:37.558Z,56.17
2019-04-05T13:29:08.772Z,56.13
2019-04-05T13:31:39.980Z,56.04
2019-04-05T13:34:11.196Z,55.99
2019-04-05T13:36:42.436Z,55.88
2019-04-05T13:39:14.167Z,55.76
2019-04-05T13:41:45.507Z,55.57
2019-04-05T13:44:16.738Z,55.41
2019-04-05T13:46:47.934Z,55.31
2019-04-05T13:49:19.147Z,55.27
2019-04-05T13:51:50.438Z,55.24
2019-04-05T13:54:21.688Z,55.26
2019-04-05T13:56:53.036Z,55.27
2019-04-05T13:59:24.502Z,55.31
2019-04-05T14:02:05.640Z,55.33
2019-04-05T14:04:29.840Z,55.35
2019-04-05T14:07:03.876Z,55.38
2019-04-05T14:09:35.203Z,55.42
2019-04-05T14:12:07.344Z,55.43
2019-04-05T14:14:41.509Z,55.47
2019-04-05T14:17:13.771Z,55.53
2019-04-05T14:19:46.757Z,55.58
2019-04-05T14:22:22.522Z,55.57
2019-04-05T14:24:56.599Z,55.59
2019-04-05T14:27:26.563Z,55.59
2019-04-05T14:29:57.832Z,55.62
2019-04-05T14:32:29.207Z,55.62
2019-04-05T14:35:00.447Z,55.63
2019-04-05T14:37:31.754Z,55.61
2019-04-05T14:40:03.019Z,55.62
2019-04-05T14:42:34.368Z,55.63
2019-04-05T14:45:06.135Z,55.64
2019-04-05T14:47:41.285Z,55.67
2019-04-05T14:50:11.481Z,55.68
2019-04-05T14:52:42.798Z,55.71
2019-04-05T14:55:14.051Z,55.72
2019-04-05T14:57:45.444Z,55.71
2019-04-05T15:00:18.320Z,55.72
2019-04-05T15:02:49.567Z,55.66
2019-04-05T15:05:20.818Z,55.60
2019-04-05T15:07:54.890Z,55.56
2019-04-05T15:10:26.071Z,55.53
2019-04-05T15:13:00.115Z,55.57
2019-04-05T15:15:30.591Z,55.56
2019-04-05T15:18:01.931Z,55.57
2019-04-05T15:20:34.781Z,55.55
2019-04-05T15:23:09.558Z,55.52
2019-04-05T15:25:40.286Z,55.46
2019-04-05T15:28:11.590Z,55.48
2019-04-05T15:30:42.950Z,55.49
2019-04-05T15:33:14.241Z,55.52
2019-04-05T15:35:45.502Z,55.54
2019-04-05T15:38:16.811Z,55.50
2019-04-05T15:40:48.076Z,55.51
2019-04-05T15:43:19.355Z,55.52
2019-04-05T15:45:52.659Z,55.49
2019-04-05T15:48:23.664Z,55.50
2019-04-05T15:50:57.660Z,55.53
2019-04-05T15:53:31.854Z,55.48
2019-04-05T15:56:03.870Z,55.46
2019-04-05T15:58:35.045Z,55.45
2019-04-05T16:01:06.852Z,55.44
2019-04-05T16:03:39.599Z,55.50
2019-04-05T16:06:10.928Z,55.46
2019-04-05T16:08:42.278Z,55.44
2019-04-05T16:11:13.560Z,55.41
2019-04-05T16:13:45.911Z,55.41
2019-04-05T16:16:17.134Z,55.43
2019-04-05T16:18:48.471Z,55.44
2019-04-05T16:21:20.937Z,55.41
2019-04-05T16:23:52.154Z,55.41
2019-04-05T16:26:23.427Z,55.39
2019-04-05T16:28:54.745Z,55.39
2019-04-05T16:31:26.060Z,55.37
2019-04-05T16:33:58.390Z,55.30
2019-04-05T16:36:31.077Z,55.25
2019-04-05T16:39:02.479Z,55.32
2019-04-05T16:41:35.508Z,55.34
2019-04-05T16:44:07.747Z,55.35
2019-04-05T16:46:39.003Z,55.37
2019-04-05T16:49:10.379Z,55.38
2019-04-05T16:51:42.697Z,55.40
2019-04-05T16:54:13.984Z,55.38
2019-04-05T16:56:45.544Z,55.39
2019-04-05T16:59:16.803Z,55.45
2019-04-05T17:01:48.131Z,55.47
2019-04-05T17:04:19.393Z,55.55
2019-04-05T17:06:50.766Z,55.60
2019-04-05T17:09:22.217Z,55.61
2019-04-05T17:11:57.090Z,55.64
2019-04-05T17:14:30.451Z,55.63
2019-04-05T17:17:03.509Z,55.62
2019-04-05T17:19:34.749Z,55.64
2019-04-05T17:22:06.018Z,55.64
2019-04-05T17:24:37.469Z,55.67
2019-04-05T17:27:08.798Z,55.71
2019-04-05T17:29:40.540Z,55.75
2019-04-05T17:32:11.840Z,55.74
2019-04-05T17:34:43.252Z,55.77
2019-04-05T17:37:14.431Z,55.81
2019-04-05T17:39:45.707Z,55.88
2019-04-05T17:42:17.259Z,55.95
2019-04-05T17:44:48.648Z,56.04
2019-04-05T17:47:20.994Z,56.15
2019-04-05T17:49:52.343Z,56.24
2019-04-05T17:52:23.861Z,56.34
2019-04-05T17:54:55.130Z,56.39
2019-04-05T17:57:27.523Z,56.51
2019-04-05T17:59:59.618Z,56.62
2019-04-05T18:02:32.420Z,56.70
2019-04-05T18:05:04.935Z,56.79
2019-04-05T18:07:37.830Z,56.84
2019-04-05T18:10:09.227Z,56.91
2019-04-05T18:12:40.538Z,57.01
2019-04-05T18:15:11.882Z,57.07
2019-04-05T18:17:43.349Z,57.15
2019-04-05T18:20:14.726Z,57.23
2019-04-05T18:22:46.441Z,57.30
2019-04-05T18:25:17.741Z,57.38
2019-04-05T18:27:49.208Z,57.42
2019-04-05T18:30:20.470Z,57.49
2019-04-05T18:32:52.343Z,57.55
2019-04-05T18:35:23.674Z,57.61
2019-04-05T18:37:55.041Z,57.68
2019-04-05T18:40:39.233Z,57.69
2019-04-05T18:42:59.504Z,57.76
2019-04-05T18:45:33.455Z,57.82
2019-04-05T18:48:03.775Z,57.86
2019-04-05T18:50:35.125Z,57.91
2019-04-05T18:53:07.141Z,57.96
2019-04-05T18:55:38.384Z,58.00
2019-04-05T18:58:09.778Z,58.02
2019-04-05T19:00:41.135Z,58.05
2019-04-05T19:03:14.107Z,58.10
2019-04-05T19:05:45.400Z,58.13
2019-04-05T19:08:16.624Z,58.17
2019-04-05T19:10:48.005Z,58.23
2019-04-05T19:13:19.294Z,58.29
2019-04-05T19:15:50.502Z,58.34
2019-04-05T19:18:21.731Z,58.38
2019-04-05T19:20:53.170Z,58.43
2019-04-05T19:23:24.479Z,58.46
2019-04-05T19:25:55.719Z,58.49
2019-04-05T19:28:27.801Z,58.52
2019-04-05T19:48:50.537Z,58.91
2019-04-05T19:51:23.204Z,58.91
2019-04-05T19:54:01.204Z,58.94
2019-04-05T19:56:39.689Z,58.96
2019-04-05T19:59:12.670Z,59.02
2019-04-05T20:01:44.051Z,59.08
2019-04-05T20:04:15.412Z,59.12
2019-04-05T20:06:46.723Z,59.16
2019-04-05T20:09:20.071Z,59.20
2019-04-05T20:11:51.399Z,59.19
2019-04-05T20:14:24.226Z,59.28
2019-04-05T20:16:56.666Z,59.28
2019-04-05T20:19:27.971Z,59.31
2019-04-05T20:22:00.503Z,59.31
2019-04-05T20:24:31.981Z,59.31
2019-04-05T20:27:03.260Z,59.29
2019-04-05T20:29:34.526Z,59.29
2019-04-05T20:32:07.383Z,59.33
2019-04-05T20:34:38.726Z,59.32
2019-04-05T20:37:10.142Z,59.35
2019-04-05T20:39:41.454Z,59.40
2019-04-05T20:42:12.666Z,59.43
2019-04-05T20:44:44.173Z,59.44
2019-04-05T20:47:15.461Z,59.45
2019-04-05T20:49:46.717Z,59.49
2019-04-05T20:52:18.441Z,59.49
2019-04-05T20:54:49.624Z,59.49
2019-04-05T20:57:20.761Z,59.54
2019-04-05T20:59:52.119Z,59.55
2019-04-05T21:02:26.357Z,59.56
2019-04-05T21:04:57.048Z,59.62
2019-04-05T21:07:28.372Z,59.65
2019-04-05T21:09:59.567Z,59.66
2019-04-05T21:12:30.877Z,59.70
2019-04-05T21:15:02.696Z,59.72
2019-04-05T21:17:35.088Z,59.75
2019-04-05T21:20:07.919Z,59.77
2019-04-05T21:22:39.037Z,59.82
2019-04-05T21:25:11.003Z,59.82
2019-04-05T21:27:42.374Z,59.84
2019-04-05T21:30:13.905Z,59.87
2019-04-05T21:32:45.312Z,59.90
2019-04-05T21:35:16.819Z,59.94
2019-04-05T21:37:49.418Z,59.95
2019-04-05T21:40:20.838Z,59.97
2019-04-05T21:42:54.095Z,60.00
2019-04-05T21:45:25.126Z,60.02
2019-04-05T21:47:56.456Z,60.03
2019-04-05T21:50:27.799Z,60.05
2019-04-05T21:52:59.168Z,60.09
2019-04-05T21:55:30.607Z,60.12
2019-04-05T21:58:02.083Z,60.14
2019-04-05T22:00:44.009Z,60.18
2019-04-05T22:03:16.052Z,60.20
2019-04-05T22:05:47.339Z,60.28
2019-04-05T22:08:18.684Z,60.27
2019-04-05T22:10:50.057Z,60.29
2019-04-05T22:13:21.515Z,60.34
2019-04-05T22:15:53.130Z,60.37
2019-04-05T22:18:24.387Z,60.39
2019-04-05T22:20:56.356Z,60.42
2019-04-05T22:23:27.936Z,60.44
2019-04-05T22:25:59.296Z,60.47
2019-04-05T22:28:30.648Z,60.52
2019-04-05T22:31:02.193Z,60.52
2019-04-05T22:33:33.464Z,60.54
2019-04-05T22:36:07.285Z,60.53
2019-04-05T22:38:41.665Z,60.59
2019-04-05T22:41:13.068Z,60.61
2019-04-05T22:43:44.292Z,60.65
2019-04-05T22:46:15.645Z,60.67
2019-04-05T22:48:46.967Z,60.73
2019-04-05T22:51:18.237Z,60.75
2019-04-05T22:53:49.615Z,60.77
2019-04-05T22:56:20.871Z,60.81
2019-04-05T22:58:52.193Z,60.80
2019-04-05T23:01:23.653Z,60.81
2019-04-05T23:03:54.865Z,60.82
2019-04-05T23:06:26.221Z,60.80
2019-04-05T23:08:57.521Z,60.82
2019-04-05T23:11:28.708Z,60.84
2019-04-05T23:13:59.985Z,60.87
2019-04-05T23:16:32.919Z,60.92
2019-04-05T23:19:04.255Z,60.94
2019-04-05T23:21:35.444Z,60.94
2019-04-05T23:24:06.729Z,60.97
2019-04-05T23:26:37.990Z,61.01
2019-04-05T23:29:09.255Z,61.03
2019-04-05T23:31:40.690Z,61.03
2019-04-05T23:34:14.976Z,61.04
2019-04-05T23:36:46.213Z,61.06
2019-04-05T23:39:17.553Z,61.07
2019-04-05T23:41:48.813Z,61.10
2019-04-05T23:44:20.690Z,61.10
2019-04-05T23:46:52.724Z,61.14
2019-04-05T23:49:24.204Z,61.15
2019-04-05T23:51:55.495Z,61.20
2019-04-05T23:54:26.729Z,61.22
2019-04-05T23:56:57.998Z,61.29
2019-04-05T23:59:29.312Z,61.31
